createdAt,value
2022-10-03T00:01:17.338Z,100.00
2022-10-03T00:03:49.936Z,100.00
2022-10-03T00:06:32.719Z,100.00
2022-10-03T00:09:20.587Z,100.00
2022-10-03T00:12:08.095Z,100.00
2022-10-03T00:14:41.178Z,100.00
2022-10-03T00:17:26.082Z,100.00
2022-10-03T00:20:04.888Z,100.00
2022-10-03T00:22:49.671Z,100.00
2022-10-03T00:25:25.353Z,100.00
2022-10-03T00:28:24.606Z,100.00
2022-10-03T00:31:17.827Z,100.00
2022-10-03T00:34:02.606Z,100.00
2022-10-03T00:36:50.567Z,100.00
2022-10-03T00:39:29.595Z,100.00
2022-10-03T00:41:56.272Z,100.00
2022-10-03T00:44:38.114Z,100.00
2022-10-03T00:47:17.141Z,100.00
2022-10-03T00:50:10.417Z,100.00
2022-10-03T00:53:01.852Z,100.00
2022-10-03T00:55:42.102Z,100.00
2022-10-03T00:58:44.056Z,100.00
2022-10-03T01:01:23.885Z,100.00
2022-10-03T01:04:16.782Z,100.00
2022-10-03T01:06:56.719Z,100.00
2022-10-03T01:09:41.627Z,100.00
2022-10-03T01:12:37.409Z,100.00
2022-10-03T01:15:10.724Z,100.00
2022-10-03T01:17:40.693Z,100.00
2022-10-03T01:20:18.392Z,100.00
2022-10-03T01:23:22.689Z,100.00
2022-10-03T01:25:59.430Z,100.00
2022-10-03T01:29:09.877Z,100.00
2022-10-03T01:31:46.895Z,100.00
2022-10-03T01:34:26.050Z,100.00
2022-10-03T01:37:17.741Z,100.00
2022-10-03T01:39:53.150Z,100.00
2022-10-03T01:42:44.979Z,100.00
2022-10-03T01:45:27.074Z,100.00
2022-10-03T01:48:12.809Z,100.00
2022-10-03T01:51:17.074Z,100.00
2022-10-03T01:53:58.903Z,100.00
2022-10-03T01:56:35.347Z,100.00
2022-10-03T01:59:09.024Z,100.00
2022-10-03T02:01:47.962Z,100.00
2022-10-03T02:04:48.273Z,100.00
2022-10-03T02:07:26.129Z,100.00
2022-10-03T02:10:10.914Z,100.00
2022-10-03T02:12:49.739Z,100.00
2022-10-03T02:15:28.083Z,100.00
2022-10-03T02:18:02.693Z,100.00
2022-10-03T02:20:47.450Z,100.00
2022-10-03T02:23:42.121Z,100.00
2022-10-03T02:26:29.665Z,100.00
2022-10-03T02:29:46.918Z,100.00
2022-10-03T02:32:50.837Z,100.00
2022-10-03T02:35:49.068Z,100.00
2022-10-03T02:38:39.066Z,100.00
2022-10-03T02:41:34.292Z,100.00
2022-10-03T02:44:38.831Z,100.00
2022-10-03T02:47:48.662Z,100.00
2022-10-03T02:50:52.699Z,100.00
2022-10-03T02:53:57.024Z,100.00
2022-10-03T02:56:56.042Z,100.00
2022-10-03T02:59:44.034Z,100.00
2022-10-03T03:02:35.723Z,100.00
2022-10-03T03:05:11.314Z,100.00
2022-10-03T03:07:49.971Z,100.00
2022-10-03T03:10:31.375Z,100.00
2022-10-03T03:13:36.785Z,100.00
2022-10-03T03:16:12.747Z,100.00
2022-10-03T03:18:50.541Z,100.00
2022-10-03T03:21:42.266Z,100.00
2022-10-03T03:24:57.494Z,100.00
2022-10-03T03:27:47.146Z,100.00
2022-10-03T03:30:19.334Z,100.00
2022-10-03T03:32:56.302Z,100.00
2022-10-03T03:35:47.925Z,100.00
2022-10-03T03:38:36.014Z,100.00
2022-10-03T03:41:34.723Z,100.00
2022-10-03T03:44:20.333Z,100.00
2022-10-03T03:46:47.615Z,100.00
2022-10-03T03:49:43.704Z,100.00
2022-10-03T03:52:23.146Z,100.00
2022-10-03T03:54:55.801Z,100.00
2022-10-03T03:58:08.997Z,100.00
2022-10-03T04:00:47.667Z,100.00
2022-10-03T04:03:43.276Z,100.00
2022-10-03T04:06:26.106Z,100.00
2022-10-03T04:09:29.414Z,100.00
2022-10-03T04:12:10.143Z,100.00
2022-10-03T04:15:04.002Z,100.00
2022-10-03T04:18:14.470Z,100.00
2022-10-03T04:21:00.615Z,100.00
2022-10-03T04:23:42.791Z,100.00
2022-10-03T04:26:51.905Z,100.00
2022-10-03T04:29:30.526Z,100.00
2022-10-03T04:32:21.352Z,100.00
2022-10-03T04:35:09.862Z,100.00
2022-10-03T04:37:48.710Z,100.00
2022-10-03T04:40:50.859Z,99.71
2022-10-03T04:43:43.703Z,99.58
2022-10-03T04:46:30.317Z,100.00
2022-10-03T04:48:56.931Z,100.00
2022-10-03T04:51:52.081Z,100.00
2022-10-03T04:55:00.238Z,100.00
2022-10-03T04:57:47.388Z,100.00
2022-10-03T05:00:28.306Z,100.00
2022-10-03T05:03:15.226Z,100.00
2022-10-03T05:06:24.188Z,100.00
2022-10-03T05:09:13.440Z,100.00
2022-10-03T05:11:54.182Z,100.00
2022-10-03T05:14:48.527Z,100.00
2022-10-03T05:17:28.315Z,100.00
2022-10-03T05:20:42.575Z,100.00
2022-10-03T05:23:44.997Z,100.00
2022-10-03T05:26:43.998Z,100.00
2022-10-03T05:29:44.080Z,100.00
2022-10-03T05:32:26.433Z,100.00
2022-10-03T05:34:56.110Z,100.00
2022-10-03T05:37:25.602Z,100.00
2022-10-03T05:40:18.942Z,100.00
2022-10-03T05:42:52.511Z,100.00
2022-10-03T05:45:42.418Z,100.00
2022-10-03T05:48:23.061Z,100.00
2022-10-03T05:51:17.298Z,100.00
2022-10-03T05:53:46.782Z,100.00
2022-10-03T05:56:41.058Z,100.00
2022-10-03T05:59:26.249Z,100.00
2022-10-03T06:02:13.953Z,100.00
2022-10-03T06:04:56.737Z,100.00
2022-10-03T06:07:30.805Z,100.00
2022-10-03T06:10:04.511Z,100.00
2022-10-03T06:12:59.398Z,100.00
2022-10-03T06:15:52.090Z,100.00
2022-10-03T06:18:32.229Z,100.00
2022-10-03T06:21:25.981Z,100.00
2022-10-03T06:24:25.306Z,100.00
2022-10-03T06:27:42.782Z,100.00
2022-10-03T06:30:36.999Z,100.00
2022-10-03T06:33:37.336Z,100.00
2022-10-03T06:36:26.044Z,100.00
2022-10-03T06:39:30.466Z,100.00
2022-10-03T06:42:12.319Z,100.00
2022-10-03T06:45:26.470Z,100.00
2022-10-03T06:48:19.536Z,100.00
2022-10-03T06:51:04.421Z,100.00
2022-10-03T06:53:30.975Z,100.00
2022-10-03T06:56:19.499Z,100.00
2022-10-03T06:59:26.654Z,100.00
2022-10-03T07:02:36.042Z,100.00
2022-10-03T07:05:41.245Z,100.00
2022-10-03T07:08:29.900Z,100.00
2022-10-03T07:11:28.616Z,100.00
2022-10-03T07:14:17.039Z,100.00
2022-10-03T07:17:05.521Z,100.00
2022-10-03T07:19:47.932Z,100.00
2022-10-03T07:22:42.563Z,100.00
2022-10-03T07:25:59.881Z,100.00
2022-10-03T07:28:58.364Z,100.00
2022-10-03T07:31:54.614Z,100.00
2022-10-03T07:34:40.783Z,100.00
2022-10-03T07:37:36.357Z,100.00
2022-10-03T07:41:05.102Z,100.00
2022-10-03T07:43:34.820Z,100.00
2022-10-03T07:46:13.736Z,100.00
2022-10-03T07:49:08.315Z,100.00
2022-10-03T07:51:45.139Z,100.00
2022-10-03T07:54:28.025Z,100.00
2022-10-03T07:57:16.732Z,100.00
2022-10-03T07:59:58.856Z,100.00
2022-10-03T08:02:47.110Z,100.00
2022-10-03T08:05:32.097Z,100.00
2022-10-03T08:08:13.867Z,100.00
2022-10-03T08:11:18.103Z,100.00
2022-10-03T08:14:11.678Z,100.00
2022-10-03T08:17:12.134Z,100.00
2022-10-03T08:20:06.375Z,100.00
2022-10-03T08:23:04.252Z,100.00
2022-10-03T08:26:08.572Z,100.00
2022-10-03T08:28:48.708Z,100.00
2022-10-03T08:31:42.588Z,100.00
2022-10-03T08:34:31.306Z,100.00
2022-10-03T08:37:25.841Z,100.00
2022-10-03T08:40:04.708Z,100.00
2022-10-03T08:43:09.035Z,100.00
2022-10-03T08:45:42.039Z,100.00
2022-10-03T08:48:33.388Z,100.00
2022-10-03T08:51:29.912Z,100.00
2022-10-03T08:54:05.616Z,100.00
2022-10-03T08:56:56.849Z,100.00
2022-10-03T08:59:26.335Z,100.00
2022-10-03T09:02:30.677Z,100.00
2022-10-03T09:05:19.245Z,100.00
2022-10-03T09:08:08.469Z,100.00
2022-10-03T09:11:03.010Z,100.00
2022-10-03T09:13:47.695Z,100.00
2022-10-03T09:16:58.529Z,100.00
2022-10-03T09:19:44.986Z,100.00
2022-10-03T09:22:14.620Z,100.00
2022-10-03T09:24:59.898Z,100.00
2022-10-03T09:27:55.522Z,100.00
2022-10-03T09:30:31.174Z,100.00
2022-10-03T09:33:28.993Z,100.00
2022-10-03T09:36:10.065Z,100.00
2022-10-03T09:39:02.668Z,100.00
2022-10-03T09:41:32.285Z,100.00
2022-10-03T09:44:28.498Z,100.00
2022-10-03T09:47:22.889Z,100.00
2022-10-03T09:50:19.145Z,100.00
2022-10-03T09:53:02.487Z,100.00
2022-10-03T09:56:01.683Z,99.00
2022-10-03T09:58:51.335Z,97.11
2022-10-03T10:01:22.097Z,97.48
2022-10-03T10:04:50.276Z,98.17
2022-10-03T10:07:37.749Z,96.74
2022-10-03T10:10:35.428Z,96.36
2022-10-03T10:13:08.022Z,93.73
2022-10-03T10:15:56.227Z,94.40
2022-10-03T10:18:28.972Z,94.91
2022-10-03T10:21:27.637Z,94.90
2022-10-03T10:24:22.273Z,93.65
2022-10-03T10:27:28.250Z,91.84
2022-10-03T10:30:09.907Z,90.95
2022-10-03T10:33:15.800Z,90.96
2022-10-03T10:36:18.379Z,94.00
2022-10-03T10:39:22.949Z,88.06
2022-10-03T10:42:27.116Z,86.55
2022-10-03T10:45:12.182Z,84.80
2022-10-03T10:47:51.735Z,85.15
2022-10-03T10:50:30.489Z,84.73
2022-10-03T10:53:09.336Z,86.40
2022-10-03T10:55:54.665Z,85.83
2022-10-03T10:58:46.034Z,84.80
2022-10-03T11:01:46.870Z,86.15
2022-10-03T11:04:35.058Z,87.07
2022-10-03T11:07:34.108Z,85.25
2022-10-03T11:10:00.574Z,88.38
2022-10-03T11:12:45.737Z,89.96
2022-10-03T11:15:37.194Z,90.10
2022-10-03T11:18:22.679Z,86.80
2022-10-03T11:21:07.956Z,85.62
2022-10-03T11:23:53.277Z,81.80
2022-10-03T11:26:54.979Z,86.41
2022-10-03T11:29:43.506Z,83.85
2022-10-03T11:32:31.551Z,78.93
2022-10-03T11:35:27.090Z,82.58
2022-10-03T11:38:16.295Z,82.66
2022-10-03T11:40:55.099Z,75.17
2022-10-03T11:43:45.135Z,80.02
2022-10-03T11:46:32.830Z,79.40
2022-10-03T11:49:41.305Z,79.29
2022-10-03T11:52:20.030Z,73.03
2022-10-03T11:54:50.667Z,76.32
2022-10-03T11:57:35.640Z,74.46
2022-10-03T12:00:05.656Z,78.05
2022-10-03T12:03:10.656Z,75.52
2022-10-03T12:06:17.418Z,73.69
2022-10-03T12:09:19.199Z,74.92
2022-10-03T12:11:58.969Z,73.21
2022-10-03T12:14:25.446Z,77.00
2022-10-03T12:17:10.875Z,72.83
2022-10-03T12:19:53.440Z,73.32
2022-10-03T12:22:42.018Z,75.09
2022-10-03T12:25:25.924Z,71.69
2022-10-03T12:27:58.765Z,69.91
2022-10-03T12:30:31.148Z,69.22
2022-10-03T12:33:17.028Z,67.36
2022-10-03T12:35:50.655Z,71.39
2022-10-03T12:38:41.283Z,73.24
2022-10-03T12:41:25.696Z,72.11
2022-10-03T12:44:29.831Z,69.69
2022-10-03T12:47:14.465Z,68.21
2022-10-03T12:49:53.617Z,67.19
2022-10-03T12:52:29.502Z,70.51
2022-10-03T12:55:02.123Z,65.74
2022-10-03T12:57:38.073Z,65.88
2022-10-03T13:00:14.199Z,61.07
2022-10-03T13:02:48.754Z,61.81
2022-10-03T13:05:23.910Z,64.86
2022-10-03T13:08:06.689Z,65.19
2022-10-03T13:10:45.596Z,68.17
2022-10-03T13:13:15.630Z,66.66
2022-10-03T13:16:04.420Z,64.40
2022-10-03T13:18:50.959Z,67.89
2022-10-03T13:21:45.808Z,66.21
2022-10-03T13:24:34.785Z,65.80
2022-10-03T13:27:32.306Z,68.31
2022-10-03T13:30:07.038Z,66.38
2022-10-03T13:32:44.696Z,68.72
2022-10-03T13:35:44.011Z,68.99
2022-10-03T13:38:10.490Z,66.47
2022-10-03T13:40:43.590Z,69.93
2022-10-03T13:43:15.298Z,68.79
2022-10-03T13:45:47.519Z,69.37
2022-10-03T13:48:21.242Z,68.41
2022-10-03T13:50:47.726Z,69.79
2022-10-03T13:53:53.426Z,71.65
2022-10-03T13:56:42.748Z,70.26
2022-10-03T13:59:25.258Z,70.39
2022-10-03T14:02:10.300Z,70.47
2022-10-03T14:04:46.798Z,72.57
2022-10-03T14:07:35.515Z,72.48
2022-10-03T14:10:14.673Z,72.71
2022-10-03T14:12:56.048Z,72.85
2022-10-03T14:15:47.593Z,72.17
2022-10-03T14:18:52.382Z,74.24
2022-10-03T14:21:48.393Z,73.60
2022-10-03T14:24:20.335Z,72.99
2022-10-03T14:27:05.002Z,73.88
2022-10-03T14:29:53.384Z,73.48
2022-10-03T14:32:48.463Z,74.32
2022-10-03T14:35:50.382Z,73.31
2022-10-03T14:38:57.275Z,73.67
2022-10-03T14:41:32.847Z,73.54
2022-10-03T14:44:13.819Z,73.46
2022-10-03T14:46:48.965Z,75.03
2022-10-03T14:49:52.266Z,71.66
2022-10-03T14:52:45.489Z,73.35
2022-10-03T14:55:32.407Z,71.19
2022-10-03T14:58:16.841Z,73.14
2022-10-03T15:00:47.604Z,72.29
2022-10-03T15:03:17.042Z,72.80
2022-10-03T15:05:59.882Z,73.01
2022-10-03T15:08:33.975Z,73.73
2022-10-03T15:11:01.511Z,73.04
2022-10-03T15:13:32.468Z,72.76
2022-10-03T15:16:01.957Z,72.50
2022-10-03T15:18:30.075Z,74.48
2022-10-03T15:20:57.517Z,73.03
2022-10-03T15:23:53.783Z,73.54
2022-10-03T15:26:24.688Z,74.84
2022-10-03T15:28:53.888Z,75.52
2022-10-03T15:31:33.194Z,74.96
2022-10-03T15:34:02.085Z,76.39
2022-10-03T15:36:38.518Z,77.39
2022-10-03T15:39:15.125Z,77.56
2022-10-03T15:42:06.288Z,76.10
2022-10-03T15:44:39.462Z,75.43
2022-10-03T15:47:13.383Z,77.20
2022-10-03T15:49:57.439Z,77.33
2022-10-03T15:52:40.165Z,76.53
2022-10-03T15:55:15.675Z,76.92
2022-10-03T15:57:49.550Z,77.27
2022-10-03T16:00:28.287Z,77.20
2022-10-03T16:03:08.340Z,76.78
2022-10-03T16:05:36.844Z,77.33
2022-10-03T16:08:09.787Z,77.51
2022-10-03T16:10:45.869Z,77.60
2022-10-03T16:13:35.338Z,77.53
2022-10-03T16:16:15.078Z,77.25
2022-10-03T16:18:48.428Z,78.24
2022-10-03T16:21:37.585Z,78.19
2022-10-03T16:24:07.563Z,78.22
2022-10-03T16:26:47.223Z,77.89
2022-10-03T16:29:25.236Z,78.57
2022-10-03T16:31:58.312Z,79.32
2022-10-03T16:34:27.497Z,79.23
2022-10-03T16:36:55.126Z,79.14
2022-10-03T16:39:29.903Z,79.50
2022-10-03T16:41:56.915Z,80.14
2022-10-03T16:44:29.049Z,80.37
2022-10-03T16:47:01.961Z,80.70
2022-10-03T16:49:54.685Z,80.66
2022-10-03T16:52:29.275Z,80.86
2022-10-03T16:55:03.405Z,80.76
2022-10-03T16:57:39.992Z,81.09
2022-10-03T17:00:15.917Z,81.71
2022-10-03T17:02:43.101Z,82.00
2022-10-03T17:05:14.943Z,81.95
2022-10-03T17:07:50.704Z,81.94
2022-10-03T17:10:39.709Z,82.46
2022-10-03T17:13:16.470Z,82.65
2022-10-03T17:15:57.196Z,82.56
2022-10-03T17:18:28.672Z,82.64
2022-10-03T17:21:06.249Z,82.76
2022-10-03T17:23:53.017Z,82.57
2022-10-03T17:26:33.299Z,82.80
2022-10-03T17:29:05.858Z,82.84
2022-10-03T17:31:45.797Z,83.23
2022-10-03T17:34:21.182Z,83.63
2022-10-03T17:37:19.223Z,83.73
2022-10-03T17:40:18.023Z,84.03
2022-10-03T17:42:51.335Z,84.29
2022-10-03T17:45:42.276Z,84.70
2022-10-03T17:48:25.177Z,84.69
2022-10-03T17:51:19.590Z,84.86
2022-10-03T17:53:57.314Z,85.07
2022-10-03T17:56:26.046Z,85.12
2022-10-03T17:59:13.566Z,85.65
2022-10-03T18:01:44.352Z,85.60
2022-10-03T18:04:18.730Z,85.82
2022-10-03T18:06:56.570Z,86.43
2022-10-03T18:09:31.171Z,87.34
2022-10-03T18:12:36.166Z,89.11
2022-10-03T18:15:22.444Z,89.86
2022-10-03T18:17:49.002Z,90.38
2022-10-03T18:20:40.579Z,90.91
2022-10-03T18:23:11.935Z,90.99
2022-10-03T18:26:20.687Z,90.19
2022-10-03T18:29:13.458Z,90.31
2022-10-03T18:31:45.564Z,90.47
2022-10-03T18:34:34.554Z,90.76
2022-10-03T18:37:16.819Z,90.50
2022-10-03T18:39:44.703Z,90.74
2022-10-03T18:42:14.135Z,90.41
2022-10-03T18:44:45.006Z,91.21
2022-10-03T18:47:27.586Z,92.51
2022-10-03T18:50:12.919Z,93.48
2022-10-03T18:52:52.368Z,93.98
2022-10-03T18:55:25.729Z,93.92
2022-10-03T18:58:17.677Z,93.70
2022-10-03T19:01:14.136Z,93.90
2022-10-03T19:03:48.588Z,95.11
2022-10-03T19:06:29.577Z,95.06
2022-10-03T19:09:00.159Z,95.07
2022-10-03T19:11:39.577Z,95.42
2022-10-03T19:14:06.218Z,95.18
2022-10-03T19:16:53.460Z,94.41
2022-10-03T19:19:47.073Z,93.05
2022-10-03T19:22:16.913Z,93.40
2022-10-03T19:25:03.316Z,93.90
2022-10-03T19:27:47.268Z,94.14
2022-10-03T19:30:25.922Z,94.20
2022-10-03T19:32:57.076Z,94.42
2022-10-03T19:35:24.962Z,95.26
2022-10-03T19:38:04.198Z,95.23
2022-10-03T19:40:35.330Z,95.87
2022-10-03T19:43:34.291Z,96.15
2022-10-03T19:46:06.895Z,96.89
2022-10-03T19:48:35.596Z,96.99
2022-10-03T19:51:20.571Z,97.28
2022-10-03T19:53:52.008Z,97.58
2022-10-03T19:56:21.213Z,96.88
2022-10-03T19:59:03.949Z,96.83
2022-10-03T20:01:48.149Z,96.10
2022-10-03T20:04:20.102Z,95.30
2022-10-03T20:06:49.897Z,95.53
2022-10-03T20:09:27.121Z,95.58
2022-10-03T20:12:01.766Z,96.07
2022-10-03T20:14:36.447Z,96.00
2022-10-03T20:17:15.602Z,96.10
2022-10-03T20:19:54.415Z,96.21
2022-10-03T20:22:25.147Z,96.36
2022-10-03T20:24:52.245Z,96.77
2022-10-03T20:27:37.162Z,97.31
2022-10-03T20:30:38.205Z,97.78
2022-10-03T20:33:06.116Z,97.88
2022-10-03T20:35:56.908Z,98.27
2022-10-03T20:38:47.509Z,98.20
2022-10-03T20:41:21.756Z,97.69
2022-10-03T20:44:28.241Z,97.13
2022-10-03T20:47:11.425Z,97.40
2022-10-03T20:49:42.126Z,97.03
2022-10-03T20:52:20.782Z,97.12
2022-10-03T20:54:47.639Z,97.20
2022-10-03T20:57:17.221Z,96.60
2022-10-03T20:59:56.913Z,97.12
2022-10-03T21:02:36.951Z,97.74
2022-10-03T21:05:22.676Z,98.46
2022-10-03T21:07:57.827Z,98.91
2022-10-03T21:10:24.483Z,98.75
2022-10-03T21:13:01.611Z,98.78
2022-10-03T21:15:47.725Z,98.88
2022-10-03T21:18:40.722Z,98.77
2022-10-03T21:21:19.448Z,99.10
2022-10-03T21:24:00.967Z,98.56
2022-10-03T21:26:31.554Z,99.20
2022-10-03T21:29:25.212Z,98.87
2022-10-03T21:32:25.973Z,99.07
2022-10-03T21:35:14.476Z,99.48
2022-10-03T21:37:56.933Z,99.24
2022-10-03T21:40:48.799Z,99.78
2022-10-03T21:43:30.612Z,99.81
2022-10-03T21:46:19.677Z,99.99
2022-10-03T21:49:14.328Z,100.00
2022-10-03T21:51:47.293Z,99.87
2022-10-03T21:54:25.996Z,99.79
2022-10-03T21:57:12.808Z,100.00
2022-10-03T21:59:57.932Z,100.00
2022-10-03T22:02:45.764Z,100.00
2022-10-03T22:05:32.905Z,100.00
2022-10-03T22:07:59.641Z,100.00
2022-10-03T22:10:36.355Z,100.00
2022-10-03T22:13:09.252Z,100.00
2022-10-03T22:16:18.401Z,100.00
2022-10-03T22:19:16.000Z,100.00
2022-10-03T22:22:07.636Z,100.00
2022-10-03T22:24:34.278Z,100.00
2022-10-03T22:27:12.530Z,100.00
2022-10-03T22:30:10.824Z,100.00
2022-10-03T22:32:48.175Z,100.00
2022-10-03T22:35:29.641Z,100.00
2022-10-03T22:37:57.008Z,99.91
2022-10-03T22:40:25.486Z,99.90
2022-10-03T22:42:56.523Z,100.00
2022-10-03T22:45:29.198Z,100.00
2022-10-03T22:47:59.501Z,100.00
2022-10-03T22:50:31.511Z,100.00
2022-10-03T22:53:00.557Z,100.00
2022-10-03T22:55:28.179Z,100.00
2022-10-03T22:57:56.130Z,100.00
2022-10-03T23:00:30.238Z,100.00
2022-10-03T23:03:06.228Z,100.00
2022-10-03T23:06:13.033Z,100.00
2022-10-03T23:08:50.780Z,100.00
2022-10-03T23:11:24.989Z,100.00
2022-10-03T23:13:52.429Z,100.00
2022-10-03T23:16:40.434Z,100.00
2022-10-03T23:19:26.066Z,100.00
2022-10-03T23:21:55.797Z,100.00
2022-10-03T23:24:29.080Z,100.00
2022-10-03T23:27:14.384Z,100.00
2022-10-03T23:29:41.247Z,100.00
2022-10-03T23:32:09.798Z,100.00
2022-10-03T23:34:36.368Z,100.00
2022-10-03T23:37:15.064Z,100.00
2022-10-03T23:40:07.331Z,100.00
2022-10-03T23:42:45.136Z,100.00
2022-10-03T23:45:17.058Z,100.00
2022-10-03T23:47:56.615Z,100.00
2022-10-03T23:50:26.984Z,100.00
2022-10-03T23:52:57.125Z,100.00
2022-10-03T23:55:29.805Z,100.00
2022-10-03T23:57:56.926Z,100.00
